sensor_id;sensor_type;location;lat;lon;timestamp;pressure;altitude;pressure_sealevel;temperature;humidity
64230;BME280;50547;49.498;0.092;2023-10-08T00:00:27;1052.09;;;18.42;75.22
64230;BME280;50547;49.498;0.092;2023-10-08T00:02:56;1052.09;;;18.42;75.10
64230;BME280;50547;49.498;0.092;2023-10-08T00:05:25;1052.09;;;18.41;75.32
64230;BME280;50547;49.498;0.092;2023-10-08T00:07:54;1052.06;;;18.41;75.39
64230;BME280;50547;49.498;0.092;2023-10-08T00:10:23;1052.06;;;18.40;75.38
64230;BME280;50547;49.498;0.092;2023-10-08T00:12:52;1052.03;;;18.38;74.41
64230;BME280;50547;49.498;0.092;2023-10-08T00:15:22;1051.99;;;18.36;74.67
64230;BME280;50547;49.498;0.092;2023-10-08T00:17:51;1051.93;;;18.32;75.04
64230;BME280;50547;49.498;0.092;2023-10-08T00:20:21;1051.87;;;18.28;75.53
64230;BME280;50547;49.498;0.092;2023-10-08T00:22:50;1051.65;;;18.21;76.21
64230;BME280;50547;49.498;0.092;2023-10-08T00:25:19;1051.59;;;18.17;76.44
64230;BME280;50547;49.498;0.092;2023-10-08T00:27:48;1051.46;;;18.09;76.92
64230;BME280;50547;49.498;0.092;2023-10-08T00:30:17;1051.41;;;18.05;77.05
64230;BME280;50547;49.498;0.092;2023-10-08T00:32:46;1051.29;;;18.00;77.28
64230;BME280;50547;49.498;0.092;2023-10-08T00:35:15;1051.20;;;17.94;77.66
64230;BME280;50547;49.498;0.092;2023-10-08T00:37:45;1051.13;;;17.89;78.08
64230;BME280;50547;49.498;0.092;2023-10-08T00:40:14;1050.99;;;17.82;78.39
64230;BME280;50547;49.498;0.092;2023-10-08T00:42:43;1050.93;;;17.78;78.63
64230;BME280;50547;49.498;0.092;2023-10-08T00:45:12;1050.81;;;17.71;79.18
64230;BME280;50547;49.498;0.092;2023-10-08T00:47:41;1050.74;;;17.67;79.20
64230;BME280;50547;49.498;0.092;2023-10-08T00:50:11;1050.62;;;17.61;79.35
64230;BME280;50547;49.498;0.092;2023-10-08T00:52:41;1050.59;;;17.58;79.39
64230;BME280;50547;49.498;0.092;2023-10-08T00:55:10;1050.51;;;17.54;79.43
64230;BME280;50547;49.498;0.092;2023-10-08T00:57:39;1050.51;;;17.52;79.18
64230;BME280;50547;49.498;0.092;2023-10-08T01:00:10;1050.45;;;17.50;78.96
64230;BME280;50547;49.498;0.092;2023-10-08T01:02:39;1050.42;;;17.48;78.87
64230;BME280;50547;49.498;0.092;2023-10-08T01:05:09;1050.35;;;17.44;79.16
64230;BME280;50547;49.498;0.092;2023-10-08T01:07:39;1050.32;;;17.41;79.27
64230;BME280;50547;49.498;0.092;2023-10-08T01:10:09;1050.26;;;17.39;79.46
64230;BME280;50547;49.498;0.092;2023-10-08T01:12:38;1050.26;;;17.39;79.33
64230;BME280;50547;49.498;0.092;2023-10-08T01:15:08;1050.26;;;17.40;79.23
64230;BME280;50547;49.498;0.092;2023-10-08T01:17:37;1050.26;;;17.40;79.05
64230;BME280;50547;49.498;0.092;2023-10-08T01:20:07;1050.26;;;17.39;78.55
64230;BME280;50547;49.498;0.092;2023-10-08T01:22:37;1050.20;;;17.36;78.69
64230;BME280;50547;49.498;0.092;2023-10-08T01:25:07;1050.11;;;17.29;79.40
64230;BME280;50547;49.498;0.092;2023-10-08T01:27:36;1050.03;;;17.24;79.60
64230;BME280;50547;49.498;0.092;2023-10-08T01:30:06;1049.84;;;17.15;80.01
64230;BME280;50547;49.498;0.092;2023-10-08T01:32:36;1049.78;;;17.10;80.07
64230;BME280;50547;49.498;0.092;2023-10-08T01:35:06;1049.66;;;17.03;80.08
64230;BME280;50547;49.498;0.092;2023-10-08T01:37:35;1049.64;;;17.00;79.99
64230;BME280;50547;49.498;0.092;2023-10-08T01:40:05;1049.55;;;16.98;79.82
64230;BME280;50547;49.498;0.092;2023-10-08T01:42:35;1049.61;;;16.98;79.65
64230;BME280;50547;49.498;0.092;2023-10-08T01:45:05;1049.61;;;17.00;79.38
64230;BME280;50547;49.498;0.092;2023-10-08T01:47:34;1049.64;;;17.00;79.01
64230;BME280;50547;49.498;0.092;2023-10-08T01:50:04;1049.66;;;17.02;79.02
64230;BME280;50547;49.498;0.092;2023-10-08T01:52:33;1049.66;;;17.03;78.70
64230;BME280;50547;49.498;0.092;2023-10-08T01:55:03;1049.69;;;17.05;78.53
64230;BME280;50547;49.498;0.092;2023-10-08T01:57:32;1049.69;;;17.06;78.34
64230;BME280;50547;49.498;0.092;2023-10-08T02:00:01;1049.72;;;17.07;78.22
64230;BME280;50547;49.498;0.092;2023-10-08T02:02:30;1049.75;;;17.08;78.16
64230;BME280;50547;49.498;0.092;2023-10-08T02:04:59;1049.75;;;17.08;78.57
64230;BME280;50547;49.498;0.092;2023-10-08T02:07:29;1049.75;;;17.08;78.50
64230;BME280;50547;49.498;0.092;2023-10-08T02:09:58;1049.75;;;17.09;78.49
64230;BME280;50547;49.498;0.092;2023-10-08T02:12:27;1049.78;;;17.10;78.73
64230;BME280;50547;49.498;0.092;2023-10-08T02:14:56;1049.81;;;17.13;77.96
64230;BME280;50547;49.498;0.092;2023-10-08T02:17:25;1049.81;;;17.13;78.13
64230;BME280;50547;49.498;0.092;2023-10-08T02:19:54;1049.81;;;17.12;78.66
64230;BME280;50547;49.498;0.092;2023-10-08T02:22:23;1049.78;;;17.11;78.59
64230;BME280;50547;49.498;0.092;2023-10-08T02:24:52;1049.78;;;17.10;78.64
64230;BME280;50547;49.498;0.092;2023-10-08T02:27:21;1049.78;;;17.11;78.59
64230;BME280;50547;49.498;0.092;2023-10-08T02:29:50;1049.78;;;17.11;78.49
64230;BME280;50547;49.498;0.092;2023-10-08T02:32:19;1049.78;;;17.10;78.59
64230;BME280;50547;49.498;0.092;2023-10-08T02:34:48;1049.75;;;17.09;79.06
64230;BME280;50547;49.498;0.092;2023-10-08T02:37:18;1049.75;;;17.09;79.56
64230;BME280;50547;49.498;0.092;2023-10-08T02:39:47;1049.78;;;17.10;79.43
64230;BME280;50547;49.498;0.092;2023-10-08T02:42:16;1049.84;;;17.14;78.99
64230;BME280;50547;49.498;0.092;2023-10-08T02:44:45;1049.88;;;17.17;78.76
64230;BME280;50547;49.498;0.092;2023-10-08T02:47:14;1049.99;;;17.22;78.40
64230;BME280;50547;49.498;0.092;2023-10-08T02:49:43;1050.03;;;17.25;78.24
64230;BME280;50547;49.498;0.092;2023-10-08T02:52:12;1050.09;;;17.28;78.38
64230;BME280;50547;49.498;0.092;2023-10-08T02:54:41;1050.11;;;17.29;78.44
64230;BME280;50547;49.498;0.092;2023-10-08T02:57:10;1050.14;;;17.31;78.52
64230;BME280;50547;49.498;0.092;2023-10-08T02:59:40;1050.17;;;17.33;78.80
64230;BME280;50547;49.498;0.092;2023-10-08T03:02:10;1050.20;;;17.36;78.86
64230;BME280;50547;49.498;0.092;2023-10-08T03:04:40;1050.23;;;17.37;79.03
64230;BME280;50547;49.498;0.092;2023-10-08T03:07:10;1050.23;;;17.38;79.35
64230;BME280;50547;49.498;0.092;2023-10-08T03:09:39;1050.26;;;17.39;79.48
64230;BME280;50547;49.498;0.092;2023-10-08T03:12:08;1050.32;;;17.41;79.26
64230;BME280;50547;49.498;0.092;2023-10-08T03:14:37;1050.32;;;17.42;79.08
64230;BME280;50547;49.498;0.092;2023-10-08T03:17:06;1050.35;;;17.44;79.32
64230;BME280;50547;49.498;0.092;2023-10-08T03:19:35;1050.35;;;17.44;78.97
64230;BME280;50547;49.498;0.092;2023-10-08T03:22:04;1050.35;;;17.43;79.39
64230;BME280;50547;49.498;0.092;2023-10-08T03:24:33;1050.32;;;17.41;79.49
64230;BME280;50547;49.498;0.092;2023-10-08T03:27:03;1050.23;;;17.38;79.79
64230;BME280;50547;49.498;0.092;2023-10-08T03:29:33;1050.20;;;17.36;79.63
64230;BME280;50547;49.498;0.092;2023-10-08T03:32:02;1050.17;;;17.33;80.05
64230;BME280;50547;49.498;0.092;2023-10-08T03:34:32;1050.17;;;17.33;79.90
64230;BME280;50547;49.498;0.092;2023-10-08T03:37:01;1050.17;;;17.33;79.39
64230;BME280;50547;49.498;0.092;2023-10-08T03:39:30;1050.17;;;17.33;79.49
64230;BME280;50547;49.498;0.092;2023-10-08T03:42:04;1050.14;;;17.32;79.47
64230;BME280;50547;49.498;0.092;2023-10-08T03:44:33;1050.14;;;17.31;79.51
64230;BME280;50547;49.498;0.092;2023-10-08T03:47:03;1050.11;;;17.29;79.92
64230;BME280;50547;49.498;0.092;2023-10-08T03:49:32;1050.09;;;17.27;80.46
64230;BME280;50547;49.498;0.092;2023-10-08T03:52:01;1050.03;;;17.24;80.75
64230;BME280;50547;49.498;0.092;2023-10-08T03:54:30;1050.00;;;17.23;80.86
64230;BME280;50547;49.498;0.092;2023-10-08T03:57:00;1049.99;;;17.22;81.00
64230;BME280;50547;49.498;0.092;2023-10-08T03:59:29;1049.97;;;17.21;81.22
64230;BME280;50547;49.498;0.092;2023-10-08T04:01:59;1049.96;;;17.20;81.34
64230;BME280;50547;49.498;0.092;2023-10-08T04:04:29;1049.91;;;17.19;81.13
64230;BME280;50547;49.498;0.092;2023-10-08T04:06:58;1049.88;;;17.17;81.46
64230;BME280;50547;49.498;0.092;2023-10-08T04:09:27;1049.87;;;17.16;81.79
64230;BME280;50547;49.498;0.092;2023-10-08T04:11:56;1049.87;;;17.16;81.92
64230;BME280;50547;49.498;0.092;2023-10-08T04:14:25;1049.87;;;17.16;81.72
64230;BME280;50547;49.498;0.092;2023-10-08T04:16:55;1049.87;;;17.16;81.63
64230;BME280;50547;49.498;0.092;2023-10-08T04:19:24;1049.88;;;17.17;81.52
64230;BME280;50547;49.498;0.092;2023-10-08T04:21:53;1049.88;;;17.17;81.68
64230;BME280;50547;49.498;0.092;2023-10-08T04:24:24;1049.90;;;17.18;81.75
64230;BME280;50547;49.498;0.092;2023-10-08T04:26:55;1049.91;;;17.19;81.39
64230;BME280;50547;49.498;0.092;2023-10-08T04:29:24;1049.96;;;17.20;81.40
64230;BME280;50547;49.498;0.092;2023-10-08T04:31:53;1049.96;;;17.20;81.52
64230;BME280;50547;49.498;0.092;2023-10-08T04:34:23;1049.99;;;17.21;81.11
64230;BME280;50547;49.498;0.092;2023-10-08T04:36:52;1049.97;;;17.21;81.11
64230;BME280;50547;49.498;0.092;2023-10-08T04:39:21;1049.96;;;17.20;81.39
64230;BME280;50547;49.498;0.092;2023-10-08T04:41:50;1049.97;;;17.20;81.28
64230;BME280;50547;49.498;0.092;2023-10-08T04:44:19;1050.00;;;17.22;80.83
64230;BME280;50547;49.498;0.092;2023-10-08T04:46:48;1050.03;;;17.24;80.72
64230;BME280;50547;49.498;0.092;2023-10-08T04:49:18;1050.06;;;17.26;80.44
64230;BME280;50547;49.498;0.092;2023-10-08T04:51:47;1050.09;;;17.27;80.50
64230;BME280;50547;49.498;0.092;2023-10-08T04:54:17;1050.09;;;17.28;80.07
64230;BME280;50547;49.498;0.092;2023-10-08T04:56:46;1050.09;;;17.27;80.24
64230;BME280;50547;49.498;0.092;2023-10-08T04:59:15;1050.06;;;17.25;80.62
64230;BME280;50547;49.498;0.092;2023-10-08T05:01:44;1050.03;;;17.25;80.81
64230;BME280;50547;49.498;0.092;2023-10-08T05:04:15;1050.03;;;17.23;80.31
64230;BME280;50547;49.498;0.092;2023-10-08T05:06:44;1049.97;;;17.21;80.68
64230;BME280;50547;49.498;0.092;2023-10-08T05:09:13;1049.87;;;17.15;81.12
64230;BME280;50547;49.498;0.092;2023-10-08T05:11:42;1049.78;;;17.11;81.68
64230;BME280;50547;49.498;0.092;2023-10-08T05:14:12;1049.66;;;17.04;82.19
64230;BME280;50547;49.498;0.092;2023-10-08T05:16:41;1049.61;;;16.99;82.30
64230;BME280;50547;49.498;0.092;2023-10-08T05:19:10;1049.49;;;16.93;82.37
64230;BME280;50547;49.498;0.092;2023-10-08T05:21:39;1049.42;;;16.89;82.32
64230;BME280;50547;49.498;0.092;2023-10-08T05:24:10;1049.33;;;16.84;82.35
64230;BME280;50547;49.498;0.092;2023-10-08T05:26:45;1049.27;;;16.80;82.59
64230;BME280;50547;49.498;0.092;2023-10-08T05:29:14;1049.17;;;16.78;82.41
64230;BME280;50547;49.498;0.092;2023-10-08T05:31:43;1049.17;;;16.77;82.08
64230;BME280;50547;49.498;0.092;2023-10-08T05:34:13;1049.11;;;16.76;81.75
64230;BME280;50547;49.498;0.092;2023-10-08T05:36:43;1049.11;;;16.75;81.75
64230;BME280;50547;49.498;0.092;2023-10-08T05:39:12;1049.06;;;16.73;81.73
64230;BME280;50547;49.498;0.092;2023-10-08T05:41:41;1049.06;;;16.71;81.83
64230;BME280;50547;49.498;0.092;2023-10-08T05:44:10;1049.03;;;16.70;81.93
64230;BME280;50547;49.498;0.092;2023-10-08T05:46:39;1049.03;;;16.69;81.90
64230;BME280;50547;49.498;0.092;2023-10-08T05:49:09;1049.00;;;16.68;81.87
64230;BME280;50547;49.498;0.092;2023-10-08T05:51:40;1049.00;;;16.67;81.76
64230;BME280;50547;49.498;0.092;2023-10-08T05:54:11;1048.97;;;16.67;81.66
64230;BME280;50547;49.498;0.092;2023-10-08T05:56:41;1048.97;;;16.66;81.68
64230;BME280;50547;49.498;0.092;2023-10-08T05:59:10;1048.96;;;16.65;81.96
64230;BME280;50547;49.498;0.092;2023-10-08T06:01:39;1048.93;;;16.64;81.93
64230;BME280;50547;49.498;0.092;2023-10-08T06:04:09;1048.93;;;16.63;82.09
64230;BME280;50547;49.498;0.092;2023-10-08T06:06:38;1048.90;;;16.62;82.12
64230;BME280;50547;49.498;0.092;2023-10-08T06:09:07;1048.87;;;16.60;82.25
64230;BME280;50547;49.498;0.092;2023-10-08T06:11:37;1048.84;;;16.59;82.15
64230;BME280;50547;49.498;0.092;2023-10-08T06:14:06;1048.84;;;16.57;82.14
64230;BME280;50547;49.498;0.092;2023-10-08T06:16:35;1048.81;;;16.56;82.18
64230;BME280;50547;49.498;0.092;2023-10-08T06:19:04;1048.81;;;16.56;82.14
64230;BME280;50547;49.498;0.092;2023-10-08T06:21:33;1048.81;;;16.56;82.12
64230;BME280;50547;49.498;0.092;2023-10-08T06:24:03;1048.84;;;16.58;81.69
64230;BME280;50547;49.498;0.092;2023-10-08T06:26:32;1048.87;;;16.60;81.54
64230;BME280;50547;49.498;0.092;2023-10-08T06:29:01;1048.93;;;16.63;81.45
64230;BME280;50547;49.498;0.092;2023-10-08T06:31:30;1049.03;;;16.69;81.04
64230;BME280;50547;49.498;0.092;2023-10-08T06:34:00;1049.09;;;16.74;80.72
64230;BME280;50547;49.498;0.092;2023-10-08T06:36:29;1049.30;;;16.82;80.24
64230;BME280;50547;49.498;0.092;2023-10-08T06:38:58;1049.39;;;16.87;80.11
64230;BME280;50547;49.498;0.092;2023-10-08T06:41:27;1049.48;;;16.92;79.61
64230;BME280;50547;49.498;0.092;2023-10-08T06:43:56;1049.52;;;16.95;79.58
64230;BME280;50547;49.498;0.092;2023-10-08T06:46:25;1049.61;;;16.99;79.84
64230;BME280;50547;49.498;0.092;2023-10-08T06:48:54;1049.64;;;17.01;79.85
64230;BME280;50547;49.498;0.092;2023-10-08T06:51:23;1049.72;;;17.07;79.56
64230;BME280;50547;49.498;0.092;2023-10-08T06:53:53;1049.78;;;17.11;79.33
64230;BME280;50547;49.498;0.092;2023-10-08T06:56:22;1049.90;;;17.18;78.91
64230;BME280;50547;49.498;0.092;2023-10-08T06:58:51;1050.00;;;17.23;78.79
64230;BME280;50547;49.498;0.092;2023-10-08T07:01:20;1050.11;;;17.29;78.48
64230;BME280;50547;49.498;0.092;2023-10-08T07:03:50;1050.14;;;17.32;78.61
64230;BME280;50547;49.498;0.092;2023-10-08T07:06:19;1050.23;;;17.37;78.51
64230;BME280;50547;49.498;0.092;2023-10-08T07:08:48;1050.26;;;17.39;78.51
64230;BME280;50547;49.498;0.092;2023-10-08T07:11:17;1050.32;;;17.42;78.44
64230;BME280;50547;49.498;0.092;2023-10-08T07:13:46;1050.35;;;17.44;78.41
64230;BME280;50547;49.498;0.092;2023-10-08T07:16:16;1050.42;;;17.48;78.13
64230;BME280;50547;49.498;0.092;2023-10-08T07:18:45;1050.45;;;17.50;77.89
64230;BME280;50547;49.498;0.092;2023-10-08T07:21:14;1050.51;;;17.53;77.59
64230;BME280;50547;49.498;0.092;2023-10-08T07:23:44;1050.54;;;17.55;77.36
64230;BME280;50547;49.498;0.092;2023-10-08T07:26:13;1050.57;;;17.56;77.34
64230;BME280;50547;49.498;0.092;2023-10-08T07:28:42;1050.54;;;17.56;77.56
64230;BME280;50547;49.498;0.092;2023-10-08T07:31:13;1050.54;;;17.54;77.68
64230;BME280;50547;49.498;0.092;2023-10-08T07:33:42;1050.54;;;17.54;77.56
64230;BME280;50547;49.498;0.092;2023-10-08T07:36:11;1050.57;;;17.56;77.41
64230;BME280;50547;49.498;0.092;2023-10-08T07:38:40;1050.57;;;17.58;77.26
64230;BME280;50547;49.498;0.092;2023-10-08T07:41:10;1050.62;;;17.60;77.18
64230;BME280;50547;49.498;0.092;2023-10-08T07:43:39;1050.68;;;17.62;77.03
64230;BME280;50547;49.498;0.092;2023-10-08T07:46:08;1050.71;;;17.65;76.91
64230;BME280;50547;49.498;0.092;2023-10-08T07:48:38;1050.74;;;17.67;76.89
64230;BME280;50547;49.498;0.092;2023-10-08T07:51:07;1050.81;;;17.71;76.75
64230;BME280;50547;49.498;0.092;2023-10-08T07:53:36;1050.87;;;17.75;76.53
64230;BME280;50547;49.498;0.092;2023-10-08T07:56:06;1050.93;;;17.79;76.25
64230;BME280;50547;49.498;0.092;2023-10-08T07:58:36;1051.07;;;17.85;76.02
64230;BME280;50547;49.498;0.092;2023-10-08T08:01:06;1051.13;;;17.90;75.95
64230;BME280;50547;49.498;0.092;2023-10-08T08:03:36;1051.23;;;17.97;75.58
64230;BME280;50547;49.498;0.092;2023-10-08T08:06:06;1051.32;;;18.01;75.40
64230;BME280;50547;49.498;0.092;2023-10-08T08:08:37;1051.41;;;18.06;75.32
64230;BME280;50547;49.498;0.092;2023-10-08T08:11:08;1051.46;;;18.09;75.37
64230;BME280;50547;49.498;0.092;2023-10-08T08:13:38;1051.49;;;18.12;75.42
64230;BME280;50547;49.498;0.092;2023-10-08T08:16:08;1051.55;;;18.15;75.42
64230;BME280;50547;49.498;0.092;2023-10-08T08:18:37;1051.56;;;18.16;75.56
64230;BME280;50547;49.498;0.092;2023-10-08T08:21:09;1051.58;;;18.16;75.75
64230;BME280;50547;49.498;0.092;2023-10-08T08:23:39;1051.59;;;18.18;75.80
64230;BME280;50547;49.498;0.092;2023-10-08T08:26:08;1051.62;;;18.18;75.96
64230;BME280;50547;49.498;0.092;2023-10-08T08:28:38;1051.62;;;18.18;75.96
64230;BME280;50547;49.498;0.092;2023-10-08T08:31:07;1051.62;;;18.19;76.04
64230;BME280;50547;49.498;0.092;2023-10-08T08:33:41;1051.62;;;18.20;75.86
64230;BME280;50547;49.498;0.092;2023-10-08T08:36:11;1051.65;;;18.20;75.87
64230;BME280;50547;49.498;0.092;2023-10-08T08:38:45;1051.65;;;18.21;75.62
64230;BME280;50547;49.498;0.092;2023-10-08T08:41:15;1051.71;;;18.25;75.35
64230;BME280;50547;49.498;0.092;2023-10-08T08:43:48;1051.87;;;18.29;75.17
64230;BME280;50547;49.498;0.092;2023-10-08T08:46:17;1052.00;;;18.37;74.44
64230;BME280;50547;49.498;0.092;2023-10-08T08:48:46;1052.11;;;18.44;73.97
64230;BME280;50547;49.498;0.092;2023-10-08T08:51:16;1052.29;;;18.54;73.55
64230;BME280;50547;49.498;0.092;2023-10-08T08:53:43;1052.42;;;18.62;73.29
64230;BME280;50547;49.498;0.092;2023-10-08T08:56:13;1052.59;;;18.72;72.87
64230;BME280;50547;49.498;0.092;2023-10-08T08:58:43;1052.71;;;18.79;72.50
64230;BME280;50547;49.498;0.092;2023-10-08T09:01:14;1052.87;;;18.89;72.23
64230;BME280;50547;49.498;0.092;2023-10-08T09:03:44;1053.01;;;18.98;71.85
64230;BME280;50547;49.498;0.092;2023-10-08T09:06:13;1053.23;;;19.11;71.28
64230;BME280;50547;49.498;0.092;2023-10-08T09:08:42;1053.44;;;19.21;70.88
64230;BME280;50547;49.498;0.092;2023-10-08T09:11:14;1053.68;;;19.36;70.23
64230;BME280;50547;49.498;0.092;2023-10-08T09:13:45;1053.86;;;19.48;69.84
64230;BME280;50547;49.498;0.092;2023-10-08T09:16:16;1054.23;;;19.68;68.85
64230;BME280;50547;49.498;0.092;2023-10-08T09:18:43;1054.54;;;19.82;68.30
64230;BME280;50547;49.498;0.092;2023-10-08T09:21:15;1054.88;;;20.02;67.72
64230;BME280;50547;49.498;0.092;2023-10-08T09:23:49;1055.12;;;20.17;67.43
64230;BME280;50547;49.498;0.092;2023-10-08T09:26:22;1055.42;;;20.35;67.29
64230;BME280;50547;49.498;0.092;2023-10-08T09:28:52;1055.60;;;20.45;67.64
64230;BME280;50547;49.498;0.092;2023-10-08T09:31:23;1055.82;;;20.59;66.63
64230;BME280;50547;49.498;0.092;2023-10-08T09:33:54;1056.02;;;20.70;66.41
64230;BME280;50547;49.498;0.092;2023-10-08T09:36:24;1056.29;;;20.86;65.67
64230;BME280;50547;49.498;0.092;2023-10-08T09:38:54;1056.48;;;20.99;64.70
64230;BME280;50547;49.498;0.092;2023-10-08T09:41:23;1056.81;;;21.18;63.92
64230;BME280;50547;49.498;0.092;2023-10-08T09:43:52;1057.13;;;21.30;63.88
64230;BME280;50547;49.498;0.092;2023-10-08T09:46:29;1057.37;;;21.46;63.48
64230;BME280;50547;49.498;0.092;2023-10-08T09:49:00;1057.56;;;21.57;63.18
64230;BME280;50547;49.498;0.092;2023-10-08T09:51:30;1057.86;;;21.75;62.98
64230;BME280;50547;49.498;0.092;2023-10-08T09:54:05;1058.08;;;21.89;62.42
64230;BME280;50547;49.498;0.092;2023-10-08T09:56:48;1058.41;;;22.08;61.15
64230;BME280;50547;49.498;0.092;2023-10-08T09:59:17;1058.71;;;22.25;60.90
64230;BME280;50547;49.498;0.092;2023-10-08T10:01:48;1058.87;;;22.35;60.93
64230;BME280;50547;49.498;0.092;2023-10-08T10:04:23;1059.17;;;22.53;59.73
64230;BME280;50547;49.498;0.092;2023-10-08T10:07:09;1059.39;;;22.64;59.18
64230;BME280;50547;49.498;0.092;2023-10-08T10:09:38;1059.79;;;22.83;58.26
64230;BME280;50547;49.498;0.092;2023-10-08T10:12:11;1059.98;;;22.95;58.45
64230;BME280;50547;49.498;0.092;2023-10-08T10:14:42;1060.28;;;23.14;58.28
64230;BME280;50547;49.498;0.092;2023-10-08T10:17:15;1060.50;;;23.25;57.17
64230;BME280;50547;49.498;0.092;2023-10-08T10:19:50;1060.74;;;23.41;56.29
64230;BME280;50547;49.498;0.092;2023-10-08T10:22:27;1061.05;;;23.58;55.78
64230;BME280;50547;49.498;0.092;2023-10-08T10:24:57;1061.26;;;23.71;55.56
64230;BME280;50547;49.498;0.092;2023-10-08T10:27:26;1061.60;;;23.91;54.88
64230;BME280;50547;49.498;0.092;2023-10-08T10:30:01;1061.82;;;24.04;54.34
64230;BME280;50547;49.498;0.092;2023-10-08T10:32:28;1062.26;;;24.25;53.93
64230;BME280;50547;49.498;0.092;2023-10-08T10:34:57;1062.50;;;24.39;53.79
64230;BME280;50547;49.498;0.092;2023-10-08T10:37:27;1062.84;;;24.59;52.70
64230;BME280;50547;49.498;0.092;2023-10-08T10:39:57;1063.00;;;24.70;52.72
64230;BME280;50547;49.498;0.092;2023-10-08T10:42:27;1063.30;;;24.88;52.20
64230;BME280;50547;49.498;0.092;2023-10-08T10:44:56;1063.55;;;25.01;52.38
64230;BME280;50547;49.498;0.092;2023-10-08T10:47:22;1063.82;;;25.19;52.08
64230;BME280;50547;49.498;0.092;2023-10-08T10:49:54;1064.03;;;25.30;51.92
64230;BME280;50547;49.498;0.092;2023-10-08T10:52:25;1064.32;;;25.47;51.23
64230;BME280;50547;49.498;0.092;2023-10-08T10:54:54;1064.50;;;25.59;51.04
64230;BME280;50547;49.498;0.092;2023-10-08T10:57:25;1044.40;;;25.77;49.53
64230;BME280;50547;49.498;0.092;2023-10-08T10:59:54;1044.65;;;25.90;49.17
64230;BME280;50547;49.498;0.092;2023-10-08T11:02:27;1044.99;;;26.10;48.53
64230;BME280;50547;49.498;0.092;2023-10-08T11:04:57;1045.20;;;26.23;48.56
64230;BME280;50547;49.498;0.092;2023-10-08T11:07:26;1045.55;;;26.44;48.20
64230;BME280;50547;49.498;0.092;2023-10-08T11:09:56;1045.82;;;26.59;47.14
64230;BME280;50547;49.498;0.092;2023-10-08T11:12:25;1046.22;;;26.83;46.53
64230;BME280;50547;49.498;0.092;2023-10-08T11:14:54;1046.50;;;27.00;45.86
64230;BME280;50547;49.498;0.092;2023-10-08T11:17:25;1047.04;;;27.27;44.97
64230;BME280;50547;49.498;0.092;2023-10-08T11:19:54;1047.35;;;27.45;45.14
64230;BME280;50547;49.498;0.092;2023-10-08T11:22:40;1047.78;;;27.71;43.55
64230;BME280;50547;49.498;0.092;2023-10-08T11:25:20;1048.09;;;27.88;43.34
64230;BME280;50547;49.498;0.092;2023-10-08T11:27:51;1048.50;;;28.14;43.24
64230;BME280;50547;49.498;0.092;2023-10-08T11:30:20;1048.93;;;28.38;43.14
64230;BME280;50547;49.498;0.092;2023-10-08T11:32:50;1049.21;;;28.56;43.03
64230;BME280;50547;49.498;0.092;2023-10-08T11:35:19;1049.72;;;28.80;42.58
64230;BME280;50547;49.498;0.092;2023-10-08T11:37:48;1049.94;;;28.94;42.02
64230;BME280;50547;49.498;0.092;2023-10-08T11:40:22;1050.15;;;29.07;41.87
64230;BME280;50547;49.498;0.092;2023-10-08T11:42:52;1050.47;;;29.25;42.21
64230;BME280;50547;49.498;0.092;2023-10-08T11:45:21;1050.65;;;29.37;42.28
64230;BME280;50547;49.498;0.092;2023-10-08T11:47:50;1050.75;;;29.41;42.64
64230;BME280;50547;49.498;0.092;2023-10-08T11:50:20;1050.88;;;29.48;43.40
64230;BME280;50547;49.498;0.092;2023-10-08T11:52:51;1050.94;;;29.52;43.55
64230;BME280;50547;49.498;0.092;2023-10-08T11:55:20;1051.03;;;29.58;43.44
64230;BME280;50547;49.498;0.092;2023-10-08T11:57:50;1051.12;;;29.62;43.83
64230;BME280;50547;49.498;0.092;2023-10-08T12:00:19;1051.15;;;29.66;43.99
64230;BME280;50547;49.498;0.092;2023-10-08T12:02:49;1051.25;;;29.71;43.67
64230;BME280;50547;49.498;0.092;2023-10-08T12:05:18;1051.31;;;29.75;43.58
64230;BME280;50547;49.498;0.092;2023-10-08T12:07:48;1051.43;;;29.83;42.86
64230;BME280;50547;49.498;0.092;2023-10-08T12:10:18;1051.53;;;29.87;43.19
64230;BME280;50547;49.498;0.092;2023-10-08T12:12:49;1051.59;;;29.91;43.03
64230;BME280;50547;49.498;0.092;2023-10-08T12:15:18;1051.65;;;29.95;42.17
64230;BME280;50547;49.498;0.092;2023-10-08T12:17:48;1051.78;;;30.02;41.70
64230;BME280;50547;49.498;0.092;2023-10-08T12:20:18;1051.88;;;30.07;41.17
64230;BME280;50547;49.498;0.092;2023-10-08T12:22:47;1052.07;;;30.15;41.11
64230;BME280;50547;49.498;0.092;2023-10-08T12:25:17;1052.16;;;30.20;40.81
64230;BME280;50547;49.498;0.092;2023-10-08T12:27:46;1052.32;;;30.28;40.91
64230;BME280;50547;49.498;0.092;2023-10-08T12:30:15;1052.38;;;30.33;40.82
64230;BME280;50547;49.498;0.092;2023-10-08T12:32:44;1052.54;;;30.43;40.72
64230;BME280;50547;49.498;0.092;2023-10-08T12:35:13;1052.69;;;30.51;40.35
64230;BME280;50547;49.498;0.092;2023-10-08T12:37:42;1052.89;;;30.63;39.58
64230;BME280;50547;49.498;0.092;2023-10-08T12:40:12;1052.85;;;30.61;40.92
64230;BME280;50547;49.498;0.092;2023-10-08T12:42:41;1052.92;;;30.65;39.83
64230;BME280;50547;49.498;0.092;2023-10-08T12:45:08;1052.95;;;30.68;39.96
64230;BME280;50547;49.498;0.092;2023-10-08T12:47:37;1052.98;;;30.70;40.19
64230;BME280;50547;49.498;0.092;2023-10-08T12:50:07;1053.01;;;30.70;40.14
64230;BME280;50547;49.498;0.092;2023-10-08T12:52:36;1053.01;;;30.70;40.30
64230;BME280;50547;49.498;0.092;2023-10-08T12:55:06;1053.01;;;30.71;40.01
64230;BME280;50547;49.498;0.092;2023-10-08T12:57:35;1053.13;;;30.78;39.76
64230;BME280;50547;49.498;0.092;2023-10-08T13:00:01;1053.26;;;30.85;38.99
64230;BME280;50547;49.498;0.092;2023-10-08T13:02:30;1053.36;;;30.92;39.77
64230;BME280;50547;49.498;0.092;2023-10-08T13:05:00;1053.45;;;30.95;39.73
64230;BME280;50547;49.498;0.092;2023-10-08T13:07:29;1053.60;;;31.05;38.97
64230;BME280;50547;49.498;0.092;2023-10-08T13:09:58;1053.73;;;31.13;38.94
64230;BME280;50547;49.498;0.092;2023-10-08T13:12:27;1053.92;;;31.23;38.88
64230;BME280;50547;49.498;0.092;2023-10-08T13:15:07;1053.98;;;31.27;38.89
64230;BME280;50547;49.498;0.092;2023-10-08T13:17:36;1054.07;;;31.33;38.98
64230;BME280;50547;49.498;0.092;2023-10-08T13:20:07;1054.20;;;31.39;39.07
64230;BME280;50547;49.498;0.092;2023-10-08T13:22:36;1054.32;;;31.47;38.14